createdAt,value
2023-04-09T00:01:32.973Z,19.50
2023-04-09T00:04:01.748Z,24.00
2023-04-09T00:06:30.073Z,23.90
2023-04-09T00:08:58.347Z,23.80
2023-04-09T00:11:29.350Z,20.30
2023-04-09T00:13:58.935Z,22.30
2023-04-09T00:16:27.380Z,22.30
2023-04-09T00:18:56.512Z,24.90
2023-04-09T00:21:24.897Z,24.00
2023-04-09T00:23:53.539Z,23.50
2023-04-09T00:26:21.621Z,20.80
2023-04-09T00:28:52.470Z,21.40
2023-04-09T00:31:22.355Z,18.10
2023-04-09T00:33:50.888Z,19.90
2023-04-09T00:36:19.100Z,20.50
2023-04-09T00:38:48.776Z,18.40
2023-04-09T00:41:18.380Z,18.60
2023-04-09T00:43:46.911Z,17.40
2023-04-09T00:46:16.341Z,18.60
2023-04-09T00:48:44.647Z,21.90
2023-04-09T00:51:13.034Z,16.00
2023-04-09T00:53:44.198Z,16.70
2023-04-09T00:56:12.547Z,20.00
2023-04-09T00:58:41.381Z,19.50
2023-04-09T01:01:09.452Z,18.80
2023-04-09T01:03:37.997Z,15.10
2023-04-09T01:06:11.504Z,15.20
2023-04-09T01:08:58.357Z,16.10
2023-04-09T01:11:59.693Z,13.80
2023-04-09T01:14:53.638Z,13.70
2023-04-09T01:17:38.276Z,14.30
2023-04-09T01:20:14.963Z,15.80
2023-04-09T01:22:58.935Z,14.90
2023-04-09T01:25:40.599Z,15.40
2023-04-09T01:28:20.036Z,13.50
2023-04-09T01:30:49.883Z,14.90
2023-04-09T01:33:19.561Z,12.30
2023-04-09T01:35:48.683Z,15.00
2023-04-09T01:38:18.985Z,14.10
2023-04-09T01:40:47.873Z,12.40
2023-04-09T01:43:17.530Z,13.00
2023-04-09T01:45:47.431Z,14.20
2023-04-09T01:48:16.411Z,14.20
2023-04-09T01:50:47.433Z,14.00
2023-04-09T01:53:15.726Z,13.90
2023-04-09T01:55:44.305Z,14.60
2023-04-09T01:58:12.339Z,14.90
2023-04-09T02:00:47.055Z,12.60
2023-04-09T02:03:20.019Z,12.90
2023-04-09T02:05:56.549Z,13.50
2023-04-09T02:08:25.235Z,12.60
2023-04-09T02:10:55.919Z,13.70
2023-04-09T02:13:26.082Z,18.90
2023-04-09T02:15:58.790Z,12.80
2023-04-09T02:18:28.778Z,10.80
2023-04-09T02:20:57.275Z,14.00
2023-04-09T02:23:27.803Z,14.70
2023-04-09T02:25:56.076Z,13.50
2023-04-09T02:28:26.499Z,11.50
2023-04-09T02:30:55.110Z,13.40
2023-04-09T02:33:23.455Z,13.80
2023-04-09T02:35:51.913Z,12.60
2023-04-09T02:38:21.358Z,11.10
2023-04-09T02:40:55.158Z,10.90
2023-04-09T02:43:24.872Z,11.80
2023-04-09T02:45:53.149Z,13.00
2023-04-09T02:48:22.143Z,14.60
2023-04-09T02:50:51.446Z,14.20
2023-04-09T02:53:21.685Z,14.80
2023-04-09T02:55:50.451Z,13.20
2023-04-09T02:58:19.065Z,11.80
2023-04-09T03:00:49.613Z,12.80
2023-04-09T03:03:18.438Z,13.60
2023-04-09T03:05:47.040Z,15.70
2023-04-09T03:08:15.130Z,14.40
2023-04-09T03:10:46.464Z,14.90
2023-04-09T03:13:15.562Z,14.70
2023-04-09T03:15:46.609Z,12.50
2023-04-09T03:18:17.120Z,14.90
2023-04-09T03:20:45.511Z,13.10
2023-04-09T03:23:19.931Z,14.20
2023-04-09T03:25:49.159Z,13.80
2023-04-09T03:28:18.166Z,17.20
2023-04-09T03:30:49.266Z,15.40
2023-04-09T03:33:19.709Z,15.10
2023-04-09T03:35:53.267Z,16.20
2023-04-09T03:38:30.103Z,18.10
2023-04-09T03:40:59.581Z,14.60
2023-04-09T03:44:34.211Z,10.30
2023-04-09T03:47:09.250Z,12.50
2023-04-09T03:49:38.400Z,13.20
2023-04-09T03:52:14.916Z,14.30
2023-04-09T03:54:45.852Z,14.10
2023-04-09T03:57:17.919Z,14.00
2023-04-09T03:59:52.132Z,13.80
2023-04-09T04:02:22.560Z,13.70
2023-04-09T04:04:58.516Z,15.50
2023-04-09T04:07:30.082Z,13.70
2023-04-09T04:10:05.716Z,11.80
2023-04-09T04:12:35.712Z,14.40
2023-04-09T04:15:08.473Z,16.10
2023-04-09T04:17:56.619Z,16.40
2023-04-09T04:20:40.266Z,14.30
2023-04-09T04:23:31.267Z,16.00
2023-04-09T04:26:11.270Z,15.90
2023-04-09T04:28:40.039Z,16.60
2023-04-09T04:31:10.829Z,15.70
2023-04-09T04:33:41.310Z,14.30
2023-04-09T04:36:13.580Z,16.00
2023-04-09T04:38:46.366Z,16.80
2023-04-09T04:41:42.951Z,15.30
2023-04-09T04:44:16.333Z,18.50
2023-04-09T04:46:47.053Z,17.60
2023-04-09T04:49:15.824Z,15.50
2023-04-09T04:51:49.213Z,15.30
2023-04-09T04:54:17.700Z,15.70
2023-04-09T04:56:52.326Z,15.90
2023-04-09T04:59:38.982Z,15.30
2023-04-09T05:02:08.559Z,20.20
2023-04-09T05:04:56.089Z,15.90
2023-04-09T05:07:31.717Z,16.00
2023-04-09T05:10:00.095Z,16.60
2023-04-09T05:12:36.527Z,17.50
2023-04-09T05:15:08.906Z,15.50
2023-04-09T05:17:43.285Z,15.20
2023-04-09T05:20:12.763Z,17.50
2023-04-09T05:23:13.850Z,14.40
2023-04-09T05:25:49.480Z,16.20
2023-04-09T05:28:26.540Z,19.90
2023-04-09T05:31:13.510Z,15.90
2023-04-09T05:33:46.818Z,16.40
2023-04-09T05:36:20.048Z,15.10
2023-04-09T05:38:56.207Z,16.20
2023-04-09T05:41:24.606Z,15.10
2023-04-09T05:44:13.190Z,14.20
2023-04-09T05:46:46.340Z,16.70
2023-04-09T05:49:16.668Z,14.80
2023-04-09T05:51:45.552Z,14.80
2023-04-09T05:54:17.378Z,14.90
2023-04-09T05:56:46.596Z,15.70
2023-04-09T05:59:21.010Z,16.00
2023-04-09T06:01:51.674Z,14.70
2023-04-09T06:04:20.897Z,13.90
2023-04-09T06:06:53.648Z,13.10
2023-04-09T06:09:21.969Z,13.10
2023-04-09T06:11:50.402Z,14.30
2023-04-09T06:14:18.715Z,13.60
2023-04-09T06:16:51.373Z,12.90
2023-04-09T06:19:19.902Z,20.00
2023-04-09T06:21:48.431Z,13.10
2023-04-09T06:24:17.417Z,12.00
2023-04-09T06:26:46.206Z,12.20
2023-04-09T06:29:14.384Z,12.50
2023-04-09T06:31:43.909Z,13.30
2023-04-09T06:34:12.011Z,16.30
2023-04-09T06:36:44.128Z,17.30
2023-04-09T06:39:12.508Z,15.00
2023-04-09T06:41:40.847Z,14.00
2023-04-09T06:44:26.305Z,11.00
2023-04-09T06:46:54.550Z,13.60
2023-04-09T06:49:27.991Z,12.50
2023-04-09T06:51:56.517Z,11.10
2023-04-09T06:54:25.002Z,11.70
2023-04-09T06:56:58.706Z,12.30
2023-04-09T06:59:27.596Z,16.50
2023-04-09T07:01:56.740Z,11.90
2023-04-09T07:04:26.434Z,11.30
2023-04-09T07:06:55.404Z,10.10
2023-04-09T07:09:23.404Z,11.80
2023-04-09T07:11:52.869Z,12.20
2023-04-09T07:14:21.250Z,11.50
2023-04-09T07:16:49.351Z,12.10
2023-04-09T07:19:18.316Z,14.20
2023-04-09T07:21:47.523Z,10.80
2023-04-09T07:24:16.011Z,11.10
2023-04-09T07:26:44.270Z,9.60
2023-04-09T07:29:12.854Z,9.10
2023-04-09T07:31:41.355Z,10.80
2023-04-09T07:34:11.145Z,10.50
2023-04-09T07:36:41.290Z,10.30
2023-04-09T07:39:09.300Z,9.40
2023-04-09T07:41:37.720Z,9.50
2023-04-09T07:44:07.655Z,9.30
2023-04-09T07:46:36.676Z,10.40
2023-04-09T07:49:06.131Z,10.30
2023-04-09T07:51:34.149Z,7.20
2023-04-09T07:54:02.692Z,8.50
2023-04-09T07:56:32.405Z,11.00
2023-04-09T07:59:00.479Z,8.90
2023-04-09T08:01:28.750Z,8.10
2023-04-09T08:03:58.244Z,8.60
2023-04-09T08:06:27.248Z,9.60
2023-04-09T08:08:55.425Z,6.90
2023-04-09T08:11:26.264Z,9.50
2023-04-09T08:13:54.744Z,12.40
2023-04-09T08:16:28.212Z,8.90
2023-04-09T08:18:57.545Z,9.40
2023-04-09T08:21:26.800Z,9.20
2023-04-09T08:23:59.635Z,9.90
2023-04-09T08:26:27.903Z,11.10
2023-04-09T08:28:56.012Z,8.00
2023-04-09T08:31:24.285Z,9.30
2023-04-09T08:33:53.674Z,7.80
2023-04-09T08:36:21.849Z,7.10
2023-04-09T08:38:50.284Z,9.10
2023-04-09T08:41:24.544Z,7.70
2023-04-09T08:43:58.124Z,7.70
2023-04-09T08:46:27.867Z,7.80
2023-04-09T08:48:57.394Z,10.50
2023-04-09T08:51:25.839Z,7.80
2023-04-09T08:54:03.641Z,8.90
2023-04-09T08:56:33.065Z,8.30
2023-04-09T08:59:01.816Z,13.00
2023-04-09T09:01:31.128Z,8.80
2023-04-09T09:04:02.161Z,7.80
2023-04-09T09:06:35.713Z,9.90
2023-04-09T09:09:11.660Z,8.60
2023-04-09T09:11:43.760Z,9.10
2023-04-09T09:14:18.544Z,8.40
2023-04-09T09:17:04.070Z,11.00
2023-04-09T09:19:36.662Z,10.80
2023-04-09T09:22:11.135Z,8.80
2023-04-09T09:24:51.865Z,8.30
2023-04-09T09:27:36.924Z,10.00
2023-04-09T09:30:07.358Z,8.00
2023-04-09T09:32:35.913Z,7.90
2023-04-09T09:35:07.716Z,9.90
2023-04-09T09:37:36.231Z,10.10
2023-04-09T09:40:05.079Z,9.50
2023-04-09T09:42:37.411Z,7.70
2023-04-09T09:45:17.750Z,8.30
2023-04-09T09:47:48.990Z,9.50
2023-04-09T09:50:17.793Z,7.80
2023-04-09T09:52:46.181Z,7.80
2023-04-09T09:55:15.728Z,7.40
2023-04-09T09:57:44.832Z,11.20
2023-04-09T10:00:19.200Z,8.70
2023-04-09T10:03:20.144Z,8.00
2023-04-09T10:05:48.808Z,7.60
2023-04-09T10:08:18.338Z,7.70
2023-04-09T10:10:47.137Z,8.50
2023-04-09T10:13:34.456Z,10.00
2023-04-09T10:16:03.224Z,9.10
2023-04-09T10:18:35.045Z,9.50
2023-04-09T10:21:42.613Z,8.90
2023-04-09T10:24:19.572Z,8.10
2023-04-09T10:26:47.834Z,7.90
2023-04-09T10:29:16.886Z,9.50
2023-04-09T10:32:21.816Z,9.10
2023-04-09T10:35:09.801Z,9.70
2023-04-09T10:37:40.189Z,8.50
2023-04-09T10:40:19.869Z,10.30
2023-04-09T10:42:49.317Z,8.70
2023-04-09T10:45:23.046Z,8.90
2023-04-09T10:47:54.218Z,8.90
2023-04-09T10:50:26.711Z,14.60
2023-04-09T10:52:59.904Z,11.30
2023-04-09T10:55:40.191Z,9.20
2023-04-09T10:58:13.699Z,8.50
2023-04-09T11:00:46.297Z,8.90
2023-04-09T11:03:26.340Z,9.90
2023-04-09T11:06:06.174Z,8.20
2023-04-09T11:08:40.206Z,10.40
2023-04-09T11:11:09.157Z,9.50
2023-04-09T11:13:41.815Z,8.50
2023-04-09T11:16:24.081Z,9.70
2023-04-09T11:19:03.125Z,11.80
2023-04-09T11:21:46.904Z,9.30
2023-04-09T11:24:16.047Z,10.50
2023-04-09T11:26:44.292Z,8.20
2023-04-09T11:29:15.131Z,10.50
2023-04-09T11:31:49.735Z,8.00
2023-04-09T11:34:37.845Z,10.80
2023-04-09T11:37:09.395Z,9.40
2023-04-09T11:39:40.958Z,9.30
2023-04-09T11:42:13.615Z,9.80
2023-04-09T11:44:47.321Z,13.20
2023-04-09T11:47:31.878Z,8.60
2023-04-09T11:50:03.135Z,8.20
2023-04-09T11:52:37.050Z,10.50
2023-04-09T11:55:09.412Z,10.50
2023-04-09T11:57:50.733Z,8.50
2023-04-09T12:00:21.177Z,8.90
2023-04-09T12:03:04.069Z,10.50
2023-04-09T12:05:49.217Z,7.20
2023-04-09T12:08:23.819Z,9.30
2023-04-09T12:11:08.187Z,10.10
2023-04-09T12:13:44.749Z,8.40
2023-04-09T12:16:14.280Z,8.80
2023-04-09T12:19:03.100Z,8.20
2023-04-09T12:21:49.976Z,9.80
2023-04-09T12:24:20.160Z,9.60
2023-04-09T12:26:53.841Z,7.60
2023-04-09T12:29:22.216Z,8.40
2023-04-09T12:31:51.198Z,9.70
2023-04-09T12:34:27.332Z,11.90
2023-04-09T12:36:56.237Z,13.70
2023-04-09T12:39:24.461Z,7.60
2023-04-09T12:41:56.135Z,6.70
2023-04-09T12:44:37.399Z,7.60
2023-04-09T12:47:05.785Z,11.70
2023-04-09T12:49:41.727Z,12.00
2023-04-09T12:52:11.145Z,10.20
2023-04-09T12:54:42.470Z,10.50
2023-04-09T12:57:13.029Z,8.30
2023-04-09T12:59:45.354Z,13.70
2023-04-09T13:02:13.798Z,10.40
2023-04-09T13:04:43.131Z,10.20
2023-04-09T13:07:13.204Z,12.70
2023-04-09T13:09:46.111Z,12.50
2023-04-09T13:12:15.690Z,9.00
2023-04-09T13:14:47.796Z,9.10
2023-04-09T13:17:18.951Z,10.40
2023-04-09T13:19:48.628Z,10.30
2023-04-09T13:22:18.352Z,11.70
2023-04-09T13:24:48.351Z,12.30
2023-04-09T13:27:18.787Z,12.00
2023-04-09T13:29:51.256Z,13.60
2023-04-09T13:32:21.259Z,18.20
2023-04-09T13:34:51.585Z,14.00
2023-04-09T13:37:20.178Z,13.30
2023-04-09T13:39:50.080Z,12.10
2023-04-09T13:42:19.259Z,10.20
2023-04-09T13:44:47.460Z,13.50
2023-04-09T13:47:17.315Z,10.10
2023-04-09T13:49:51.598Z,12.20
2023-04-09T13:52:19.787Z,14.60
2023-04-09T13:54:53.276Z,12.80
2023-04-09T13:57:26.233Z,12.30
2023-04-09T13:59:54.652Z,10.00
2023-04-09T14:02:28.194Z,8.50
2023-04-09T14:04:57.234Z,7.90
2023-04-09T14:07:27.148Z,11.10
2023-04-09T14:09:55.730Z,9.30
2023-04-09T14:12:24.275Z,9.30
2023-04-09T14:14:52.312Z,9.80
2023-04-09T14:17:20.731Z,11.40
2023-04-09T14:19:49.029Z,8.30
2023-04-09T14:22:19.188Z,9.50
2023-04-09T14:24:48.351Z,8.60
2023-04-09T14:27:17.141Z,6.70
2023-04-09T14:29:46.450Z,7.90
2023-04-09T14:32:23.323Z,9.30
2023-04-09T14:35:11.258Z,10.90
2023-04-09T14:37:42.406Z,12.40
2023-04-09T14:40:13.859Z,9.30
2023-04-09T14:42:45.820Z,8.00
2023-04-09T14:45:25.062Z,10.20
2023-04-09T14:47:55.128Z,10.20
2023-04-09T14:50:26.554Z,10.10
2023-04-09T14:52:56.929Z,9.30
2023-04-09T14:55:44.952Z,9.10
2023-04-09T14:58:19.727Z,7.20
2023-04-09T15:00:58.988Z,9.90
2023-04-09T15:03:31.484Z,8.60
2023-04-09T15:06:12.602Z,9.00
2023-04-09T15:08:40.883Z,10.10
2023-04-09T15:11:18.078Z,7.50
2023-04-09T15:13:56.467Z,7.10
2023-04-09T15:16:27.479Z,8.80
2023-04-09T15:19:05.427Z,7.30
2023-04-09T15:21:38.859Z,7.60
2023-04-09T15:24:08.155Z,9.00
2023-04-09T15:26:39.995Z,7.60
2023-04-09T15:29:22.176Z,7.10
2023-04-09T15:31:56.467Z,7.00
2023-04-09T15:34:32.674Z,8.00
2023-04-09T15:37:04.543Z,8.90
2023-04-09T15:39:32.816Z,8.60
2023-04-09T15:42:02.308Z,7.80
2023-04-09T15:44:31.728Z,7.60
2023-04-09T15:47:10.536Z,9.40
2023-04-09T15:49:43.116Z,8.50
2023-04-09T15:52:15.865Z,9.80
2023-04-09T15:54:46.992Z,8.70
2023-04-09T15:57:22.261Z,10.10
2023-04-09T16:12:43.937Z,7.70
2023-04-09T16:15:13.963Z,7.80
2023-04-09T16:17:45.831Z,7.10
2023-04-09T16:20:26.750Z,9.00
2023-04-09T16:22:57.135Z,7.90
2023-04-09T16:25:26.778Z,10.40
2023-04-09T16:27:57.254Z,10.20
2023-04-09T16:30:28.945Z,9.50
2023-04-09T16:32:59.026Z,11.30
2023-04-09T16:35:27.168Z,8.30
2023-04-09T16:38:09.566Z,10.00
2023-04-09T16:40:39.690Z,10.60
2023-04-09T16:43:12.299Z,10.50
2023-04-09T16:45:40.814Z,11.20
2023-04-09T16:48:28.838Z,9.90
2023-04-09T16:51:03.922Z,10.30
2023-04-09T16:53:38.833Z,9.40
2023-04-09T16:56:10.791Z,11.30
2023-04-09T16:58:39.520Z,9.00
2023-04-09T17:01:08.428Z,8.90
2023-04-09T17:03:49.828Z,9.20
2023-04-09T17:06:18.777Z,10.80
2023-04-09T17:08:48.062Z,12.40
2023-04-09T17:11:17.257Z,11.00
2023-04-09T17:13:51.796Z,12.90
2023-04-09T17:16:24.924Z,11.70
2023-04-09T17:18:53.525Z,11.40
2023-04-09T17:21:27.611Z,13.00
2023-04-09T17:24:04.678Z,13.70
2023-04-09T17:26:34.903Z,13.40
2023-04-09T17:29:04.291Z,11.10
2023-04-09T17:31:32.676Z,9.90
2023-04-09T17:34:19.600Z,11.40
2023-04-09T17:36:56.584Z,8.60
2023-04-09T17:39:32.845Z,10.70
2023-04-09T17:42:03.690Z,10.10
2023-04-09T17:44:39.420Z,10.70
2023-04-09T17:47:12.520Z,12.00
2023-04-09T17:49:42.702Z,10.50
2023-04-09T17:52:15.005Z,11.00
2023-04-09T17:54:47.211Z,10.10
2023-04-09T17:57:15.664Z,11.10
2023-04-09T17:59:49.109Z,17.40
2023-04-09T18:02:18.212Z,10.10
2023-04-09T18:04:53.398Z,10.30
2023-04-09T18:07:22.485Z,13.10
2023-04-09T18:09:52.428Z,11.50
2023-04-09T18:12:20.877Z,11.10
2023-04-09T18:14:59.509Z,10.50
2023-04-09T18:17:32.609Z,9.60
2023-04-09T18:20:01.563Z,9.10
2023-04-09T18:22:30.986Z,10.60
2023-04-09T18:25:00.087Z,10.70
2023-04-09T18:27:29.892Z,10.30
2023-04-09T18:29:59.502Z,11.00
2023-04-09T18:32:39.922Z,8.60
2023-04-09T18:35:11.230Z,9.90
2023-04-09T18:37:42.662Z,9.60
2023-04-09T18:40:13.902Z,11.20
2023-04-09T18:42:42.023Z,9.30
2023-04-09T18:45:11.279Z,12.40
2023-04-09T18:47:40.960Z,11.30
2023-04-09T18:50:10.701Z,12.00
2023-04-09T18:52:44.216Z,10.60
2023-04-09T18:55:13.815Z,11.60
2023-04-09T18:57:44.443Z,11.90
2023-04-09T19:00:13.345Z,10.90
2023-04-09T19:02:41.763Z,10.50
2023-04-09T19:05:12.037Z,11.00
2023-04-09T19:07:40.420Z,10.40
2023-04-09T19:10:09.325Z,9.90
2023-04-09T19:12:38.221Z,12.60
2023-04-09T19:15:07.840Z,11.20
2023-04-09T19:17:35.962Z,10.80
2023-04-09T19:20:05.745Z,10.00
2023-04-09T19:22:34.193Z,10.70
2023-04-09T19:25:07.529Z,8.90
2023-04-09T19:27:36.470Z,9.70
2023-04-09T19:30:08.169Z,15.80
2023-04-09T19:32:37.038Z,11.00
2023-04-09T19:35:07.182Z,13.80
2023-04-09T19:37:35.328Z,10.00
2023-04-09T19:40:04.762Z,10.60
2023-04-09T19:42:33.460Z,11.90
2023-04-09T19:45:05.871Z,11.60
2023-04-09T19:47:35.002Z,13.50
2023-04-09T19:50:03.267Z,11.30
2023-04-09T19:52:33.282Z,13.90
2023-04-09T19:55:02.119Z,12.00
2023-04-09T19:57:32.475Z,10.60
2023-04-09T20:00:01.060Z,10.60
2023-04-09T20:02:37.949Z,10.40
2023-04-09T20:05:07.761Z,11.10
2023-04-09T20:07:36.282Z,11.30
2023-04-09T20:12:57.633Z,11.20
2023-04-09T20:15:30.284Z,13.20
2023-04-09T20:18:02.012Z,12.30
2023-04-09T20:20:33.487Z,11.00
2023-04-09T20:23:03.806Z,11.00
2023-04-09T20:25:36.825Z,11.70
2023-04-09T20:28:10.604Z,13.30
2023-04-09T20:30:40.934Z,11.80
2023-04-09T20:33:09.871Z,12.90
2023-04-09T20:35:42.850Z,12.50
2023-04-09T20:38:12.881Z,12.50
2023-04-09T20:40:42.013Z,13.80
2023-04-09T20:43:13.040Z,11.70
2023-04-09T20:45:47.437Z,12.10
2023-04-09T20:48:19.060Z,14.30
2023-04-09T20:50:47.183Z,14.30
2023-04-09T20:53:18.049Z,11.30
2023-04-09T20:55:49.053Z,12.20
2023-04-09T20:58:19.997Z,12.20
2023-04-09T21:01:06.853Z,15.90
2023-04-09T21:03:36.177Z,13.00
2023-04-09T21:06:06.886Z,14.50
2023-04-09T21:08:36.724Z,13.10
2023-04-09T21:11:07.376Z,14.00
2023-04-09T21:16:27.406Z,12.60
2023-04-09T21:19:09.300Z,15.30
2023-04-09T21:21:41.364Z,13.70
2023-04-09T21:24:20.506Z,12.70
2023-04-09T21:26:52.371Z,15.00
2023-04-09T21:29:23.692Z,11.50
2023-04-09T21:32:06.501Z,11.70
2023-04-09T21:34:39.657Z,12.50
2023-04-09T21:37:14.464Z,9.20
2023-04-09T21:39:52.360Z,12.90
2023-04-09T21:42:25.295Z,10.40
2023-04-09T21:44:57.088Z,12.40
2023-04-09T21:47:28.734Z,12.60
2023-04-09T21:50:18.536Z,10.80
2023-04-09T21:53:03.722Z,10.80
2023-04-09T21:55:37.475Z,13.10
2023-04-09T21:58:08.329Z,11.40
2023-04-09T22:00:39.522Z,12.10
2023-04-09T22:03:19.809Z,9.90
2023-04-09T22:05:54.964Z,12.00
2023-04-09T22:08:26.321Z,11.30
2023-04-09T22:10:59.359Z,10.90
2023-04-09T22:13:35.223Z,9.80
2023-04-09T22:16:08.835Z,10.90
2023-04-09T22:18:39.889Z,10.10
2023-04-09T22:21:16.110Z,12.50
2023-04-09T22:23:45.607Z,10.50
2023-04-09T22:26:14.344Z,12.30
2023-04-09T22:28:43.791Z,12.60
2023-04-09T22:31:12.645Z,10.00
2023-04-09T22:33:41.633Z,10.50
2023-04-09T22:36:10.486Z,12.20
2023-04-09T22:38:43.311Z,11.80
2023-04-09T22:41:11.544Z,11.60
2023-04-09T22:43:39.615Z,11.10
2023-04-09T22:46:10.637Z,10.70
2023-04-09T22:48:44.587Z,11.80
2023-04-09T22:51:13.930Z,11.00
2023-04-09T22:53:42.227Z,10.50
2023-04-09T22:56:11.383Z,12.20
2023-04-09T22:58:41.291Z,10.10
2023-04-09T23:01:09.656Z,13.70
2023-04-09T23:03:41.844Z,9.80
2023-04-09T23:06:13.651Z,9.60
2023-04-09T23:08:43.049Z,10.20
2023-04-09T23:11:11.280Z,9.80
2023-04-09T23:13:45.550Z,11.40
2023-04-09T23:16:13.848Z,12.00
2023-04-09T23:18:44.454Z,11.60
2023-04-09T23:21:16.504Z,13.50
2023-04-09T23:23:44.951Z,13.20
2023-04-09T23:26:21.802Z,13.10
2023-04-09T23:28:52.662Z,11.50
2023-04-09T23:31:26.324Z,12.90
2023-04-09T23:33:55.049Z,12.10
2023-04-09T23:36:26.765Z,12.10
2023-04-09T23:38:59.365Z,13.70
2023-04-09T23:44:10.711Z,11.80
2023-04-09T23:46:53.398Z,12.00
2023-04-09T23:49:21.719Z,11.40
2023-04-09T23:51:55.637Z,12.40
2023-04-09T23:54:24.241Z,14.10
2023-04-09T23:57:06.313Z,14.00
2023-04-09T23:59:36.032Z,15.80
